sensor_id;sensor_type;location;lat;lon;timestamp;P1;durP1;ratioP1;P2;durP2;ratioP2
27804;SDS011;15183;51.350;11.102;2023-06-04T00:01:28;2.08;;;1.73;;
27804;SDS011;15183;51.350;11.102;2023-06-04T00:03:54;2.17;;;1.70;;
27804;SDS011;15183;51.350;11.102;2023-06-04T00:06:21;2.40;;;1.80;;
27804;SDS011;15183;51.350;11.102;2023-06-04T00:08:47;3.28;;;1.77;;
27804;SDS011;15183;51.350;11.102;2023-06-04T00:11:14;6.50;;;2.03;;
27804;SDS011;15183;51.350;11.102;2023-06-04T00:13:40;4.22;;;1.83;;
27804;SDS011;15183;51.350;11.102;2023-06-04T00:16:07;1.60;;;1.50;;
27804;SDS011;15183;51.350;11.102;2023-06-04T00:18:33;2.53;;;1.60;;
27804;SDS011;15183;51.350;11.102;2023-06-04T00:20:59;2.75;;;1.52;;
27804;SDS011;15183;51.350;11.102;2023-06-04T00:23:26;2.00;;;1.60;;
27804;SDS011;15183;51.350;11.102;2023-06-04T00:25:52;1.95;;;1.70;;
27804;SDS011;15183;51.350;11.102;2023-06-04T00:28:18;3.75;;;1.92;;
27804;SDS011;15183;51.350;11.102;2023-06-04T00:30:45;5.97;;;2.42;;
27804;SDS011;15183;51.350;11.102;2023-06-04T00:33:11;4.78;;;2.22;;
27804;SDS011;15183;51.350;11.102;2023-06-04T00:35:38;3.20;;;2.05;;
27804;SDS011;15183;51.350;11.102;2023-06-04T00:38:04;5.40;;;2.35;;
27804;SDS011;15183;51.350;11.102;2023-06-04T00:40:31;2.28;;;1.60;;
27804;SDS011;15183;51.350;11.102;2023-06-04T00:42:57;6.18;;;2.22;;
27804;SDS011;15183;51.350;11.102;2023-06-04T00:45:23;2.50;;;1.92;;
27804;SDS011;15183;51.350;11.102;2023-06-04T00:47:51;2.85;;;2.13;;
27804;SDS011;15183;51.350;11.102;2023-06-04T00:50:18;4.85;;;2.10;;
27804;SDS011;15183;51.350;11.102;2023-06-04T00:52:47;3.13;;;2.00;;
27804;SDS011;15183;51.350;11.102;2023-06-04T00:55:17;4.07;;;2.20;;
27804;SDS011;15183;51.350;11.102;2023-06-04T00:57:44;1.85;;;1.55;;
27804;SDS011;15183;51.350;11.102;2023-06-04T01:00:10;2.45;;;1.75;;
27804;SDS011;15183;51.350;11.102;2023-06-04T01:02:38;3.83;;;2.00;;
27804;SDS011;15183;51.350;11.102;2023-06-04T01:07:55;4.05;;;2.00;;
27804;SDS011;15183;51.350;11.102;2023-06-04T01:10:23;3.60;;;2.30;;
27804;SDS011;15183;51.350;11.102;2023-06-04T01:12:49;2.25;;;1.65;;
27804;SDS011;15183;51.350;11.102;2023-06-04T01:15:16;2.08;;;1.88;;
27804;SDS011;15183;51.350;11.102;2023-06-04T01:17:43;3.17;;;2.03;;
27804;SDS011;15183;51.350;11.102;2023-06-04T01:26:27;2.58;;;1.83;;
27804;SDS011;15183;51.350;11.102;2023-06-04T01:28:59;2.65;;;1.80;;
27804;SDS011;15183;51.350;11.102;2023-06-04T01:31:27;1.70;;;1.60;;
27804;SDS011;15183;51.350;11.102;2023-06-04T01:33:58;4.10;;;1.60;;
27804;SDS011;15183;51.350;11.102;2023-06-04T01:36:24;3.45;;;1.80;;
27804;SDS011;15183;51.350;11.102;2023-06-04T01:38:51;2.10;;;1.63;;
27804;SDS011;15183;51.350;11.102;2023-06-04T01:41:17;1.70;;;1.60;;
27804;SDS011;15183;51.350;11.102;2023-06-04T01:43:44;2.50;;;1.42;;
27804;SDS011;15183;51.350;11.102;2023-06-04T01:46:10;2.20;;;1.50;;
27804;SDS011;15183;51.350;11.102;2023-06-04T01:48:37;1.55;;;1.27;;
27804;SDS011;15183;51.350;11.102;2023-06-04T01:51:04;1.45;;;1.30;;
27804;SDS011;15183;51.350;11.102;2023-06-04T01:53:31;2.78;;;1.58;;
27804;SDS011;15183;51.350;11.102;2023-06-04T01:55:57;2.80;;;1.48;;
27804;SDS011;15183;51.350;11.102;2023-06-04T01:58:24;2.10;;;1.52;;
27804;SDS011;15183;51.350;11.102;2023-06-04T02:00:53;2.15;;;1.60;;
27804;SDS011;15183;51.350;11.102;2023-06-04T02:03:21;4.43;;;1.55;;
27804;SDS011;15183;51.350;11.102;2023-06-04T02:05:48;2.63;;;1.50;;
27804;SDS011;15183;51.350;11.102;2023-06-04T02:08:15;3.53;;;1.75;;
27804;SDS011;15183;51.350;11.102;2023-06-04T02:10:45;3.83;;;1.58;;
27804;SDS011;15183;51.350;11.102;2023-06-04T02:13:13;1.88;;;1.30;;
27804;SDS011;15183;51.350;11.102;2023-06-04T02:15:40;4.75;;;1.65;;
27804;SDS011;15183;51.350;11.102;2023-06-04T02:18:12;2.65;;;1.50;;
27804;SDS011;15183;51.350;11.102;2023-06-04T02:20:41;1.88;;;1.40;;
27804;SDS011;15183;51.350;11.102;2023-06-04T02:23:12;1.75;;;1.30;;
27804;SDS011;15183;51.350;11.102;2023-06-04T02:25:40;2.45;;;1.50;;
27804;SDS011;15183;51.350;11.102;2023-06-04T02:28:07;1.75;;;1.45;;
27804;SDS011;15183;51.350;11.102;2023-06-04T02:30:34;2.30;;;1.60;;
27804;SDS011;15183;51.350;11.102;2023-06-04T02:33:00;1.30;;;1.20;;
27804;SDS011;15183;51.350;11.102;2023-06-04T02:35:30;2.28;;;1.50;;
27804;SDS011;15183;51.350;11.102;2023-06-04T02:37:57;1.50;;;1.23;;
27804;SDS011;15183;51.350;11.102;2023-06-04T02:40:24;4.13;;;1.50;;
27804;SDS011;15183;51.350;11.102;2023-06-04T02:42:54;4.50;;;1.70;;
27804;SDS011;15183;51.350;11.102;2023-06-04T02:45:21;2.75;;;1.50;;
27804;SDS011;15183;51.350;11.102;2023-06-04T02:47:48;1.55;;;1.35;;
27804;SDS011;15183;51.350;11.102;2023-06-04T02:50:15;2.33;;;1.33;;
27804;SDS011;15183;51.350;11.102;2023-06-04T02:52:42;1.38;;;1.25;;
27804;SDS011;15183;51.350;11.102;2023-06-04T02:55:09;2.25;;;1.55;;
27804;SDS011;15183;51.350;11.102;2023-06-04T02:57:38;2.42;;;1.70;;
27804;SDS011;15183;51.350;11.102;2023-06-04T03:00:10;3.78;;;1.60;;
27804;SDS011;15183;51.350;11.102;2023-06-04T03:02:42;3.15;;;1.40;;
27804;SDS011;15183;51.350;11.102;2023-06-04T03:05:13;2.45;;;1.63;;
27804;SDS011;15183;51.350;11.102;2023-06-04T03:07:41;2.00;;;1.80;;
27804;SDS011;15183;51.350;11.102;2023-06-04T03:10:09;1.80;;;1.60;;
27804;SDS011;15183;51.350;11.102;2023-06-04T03:12:37;6.82;;;1.45;;
27804;SDS011;15183;51.350;11.102;2023-06-04T03:15:04;2.60;;;1.40;;
27804;SDS011;15183;51.350;11.102;2023-06-04T03:17:31;1.88;;;1.50;;
27804;SDS011;15183;51.350;11.102;2023-06-04T03:19:57;1.50;;;1.40;;
27804;SDS011;15183;51.350;11.102;2023-06-04T03:22:24;1.70;;;1.33;;
27804;SDS011;15183;51.350;11.102;2023-06-04T03:24:51;2.63;;;1.98;;
27804;SDS011;15183;51.350;11.102;2023-06-04T03:27:18;2.20;;;1.30;;
27804;SDS011;15183;51.350;11.102;2023-06-04T03:29:44;1.65;;;1.20;;
27804;SDS011;15183;51.350;11.102;2023-06-04T03:32:11;2.70;;;1.75;;
27804;SDS011;15183;51.350;11.102;2023-06-04T03:34:38;1.63;;;1.50;;
27804;SDS011;15183;51.350;11.102;2023-06-04T03:37:05;1.88;;;1.30;;
27804;SDS011;15183;51.350;11.102;2023-06-04T03:39:31;1.98;;;1.40;;
27804;SDS011;15183;51.350;11.102;2023-06-04T03:41:57;2.50;;;1.73;;
27804;SDS011;15183;51.350;11.102;2023-06-04T03:44:24;2.60;;;1.70;;
27804;SDS011;15183;51.350;11.102;2023-06-04T03:46:50;1.63;;;1.25;;
27804;SDS011;15183;51.350;11.102;2023-06-04T03:49:17;2.20;;;1.23;;
27804;SDS011;15183;51.350;11.102;2023-06-04T03:51:44;3.00;;;1.40;;
27804;SDS011;15183;51.350;11.102;2023-06-04T03:54:10;1.50;;;1.40;;
27804;SDS011;15183;51.350;11.102;2023-06-04T03:56:37;2.95;;;1.50;;
27804;SDS011;15183;51.350;11.102;2023-06-04T03:59:05;1.50;;;1.35;;
27804;SDS011;15183;51.350;11.102;2023-06-04T04:01:31;2.28;;;1.58;;
27804;SDS011;15183;51.350;11.102;2023-06-04T04:03:57;1.83;;;1.40;;
27804;SDS011;15183;51.350;11.102;2023-06-04T04:06:24;1.83;;;1.30;;
27804;SDS011;15183;51.350;11.102;2023-06-04T04:08:50;2.95;;;1.58;;
27804;SDS011;15183;51.350;11.102;2023-06-04T04:11:16;2.55;;;1.45;;
27804;SDS011;15183;51.350;11.102;2023-06-04T04:13:46;2.38;;;1.52;;
27804;SDS011;15183;51.350;11.102;2023-06-04T04:16:13;3.38;;;1.40;;
27804;SDS011;15183;51.350;11.102;2023-06-04T04:18:41;4.72;;;1.73;;
27804;SDS011;15183;51.350;11.102;2023-06-04T04:21:09;2.83;;;1.77;;
27804;SDS011;15183;51.350;11.102;2023-06-04T04:23:37;7.65;;;2.80;;
27804;SDS011;15183;51.350;11.102;2023-06-04T04:26:08;4.10;;;2.42;;
27804;SDS011;15183;51.350;11.102;2023-06-04T04:31:40;15.23;;;8.07;;
27804;SDS011;15183;51.350;11.102;2023-06-04T04:34:07;31.95;;;17.17;;
27804;SDS011;15183;51.350;11.102;2023-06-04T04:36:34;25.30;;;14.38;;
27804;SDS011;15183;51.350;11.102;2023-06-04T04:39:02;9.77;;;6.22;;
27804;SDS011;15183;51.350;11.102;2023-06-04T04:41:28;8.77;;;4.05;;
27804;SDS011;15183;51.350;11.102;2023-06-04T04:43:54;5.13;;;2.70;;
27804;SDS011;15183;51.350;11.102;2023-06-04T04:46:30;3.95;;;2.78;;
27804;SDS011;15183;51.350;11.102;2023-06-04T04:48:57;30.63;;;14.43;;
27804;SDS011;15183;51.350;11.102;2023-06-04T04:51:23;25.23;;;11.25;;
27804;SDS011;15183;51.350;11.102;2023-06-04T04:53:50;93.07;;;33.45;;
27804;SDS011;15183;51.350;11.102;2023-06-04T04:56:16;71.80;;;26.77;;
27804;SDS011;15183;51.350;11.102;2023-06-04T04:58:42;27.45;;;12.55;;
27804;SDS011;15183;51.350;11.102;2023-06-04T05:01:09;12.93;;;6.75;;
27804;SDS011;15183;51.350;11.102;2023-06-04T05:03:35;7.75;;;4.32;;
27804;SDS011;15183;51.350;11.102;2023-06-04T05:06:01;7.80;;;3.72;;
27804;SDS011;15183;51.350;11.102;2023-06-04T05:08:28;4.28;;;2.53;;
27804;SDS011;15183;51.350;11.102;2023-06-04T05:10:54;2.63;;;1.83;;
27804;SDS011;15183;51.350;11.102;2023-06-04T05:13:21;3.42;;;2.13;;
27804;SDS011;15183;51.350;11.102;2023-06-04T05:15:48;7.10;;;2.60;;
27804;SDS011;15183;51.350;11.102;2023-06-04T05:18:18;2.58;;;1.95;;
27804;SDS011;15183;51.350;11.102;2023-06-04T05:20:46;4.63;;;2.25;;
27804;SDS011;15183;51.350;11.102;2023-06-04T05:23:13;2.83;;;1.90;;
27804;SDS011;15183;51.350;11.102;2023-06-04T05:25:39;3.03;;;1.83;;
27804;SDS011;15183;51.350;11.102;2023-06-04T05:28:15;4.70;;;2.00;;
27804;SDS011;15183;51.350;11.102;2023-06-04T05:30:41;4.38;;;2.40;;
27804;SDS011;15183;51.350;11.102;2023-06-04T05:33:09;2.08;;;1.67;;
27804;SDS011;15183;51.350;11.102;2023-06-04T05:35:44;3.03;;;1.98;;
27804;SDS011;15183;51.350;11.102;2023-06-04T05:38:12;3.05;;;2.17;;
27804;SDS011;15183;51.350;11.102;2023-06-04T05:40:43;2.80;;;2.00;;
27804;SDS011;15183;51.350;11.102;2023-06-04T05:43:10;2.65;;;2.08;;
27804;SDS011;15183;51.350;11.102;2023-06-04T05:45:37;1.95;;;1.73;;
27804;SDS011;15183;51.350;11.102;2023-06-04T05:48:04;14.38;;;4.47;;
27804;SDS011;15183;51.350;11.102;2023-06-04T05:50:31;5.07;;;3.72;;
27804;SDS011;15183;51.350;11.102;2023-06-04T05:52:57;4.00;;;3.20;;
27804;SDS011;15183;51.350;11.102;2023-06-04T05:55:24;9.60;;;6.90;;
27804;SDS011;15183;51.350;11.102;2023-06-04T05:57:51;11.40;;;7.75;;
27804;SDS011;15183;51.350;11.102;2023-06-04T06:00:17;5.93;;;4.05;;
27804;SDS011;15183;51.350;11.102;2023-06-04T06:02:44;4.35;;;3.33;;
27804;SDS011;15183;51.350;11.102;2023-06-04T06:05:11;11.05;;;7.43;;
27804;SDS011;15183;51.350;11.102;2023-06-04T06:07:37;7.10;;;5.38;;
27804;SDS011;15183;51.350;11.102;2023-06-04T06:10:04;6.53;;;4.65;;
27804;SDS011;15183;51.350;11.102;2023-06-04T06:12:31;4.28;;;3.00;;
27804;SDS011;15183;51.350;11.102;2023-06-04T06:14:57;4.75;;;3.13;;
27804;SDS011;15183;51.350;11.102;2023-06-04T06:17:24;8.40;;;5.45;;
27804;SDS011;15183;51.350;11.102;2023-06-04T06:19:55;14.63;;;6.53;;
27804;SDS011;15183;51.350;11.102;2023-06-04T06:22:22;7.50;;;4.45;;
27804;SDS011;15183;51.350;11.102;2023-06-04T06:24:48;7.78;;;4.80;;
27804;SDS011;15183;51.350;11.102;2023-06-04T06:27:15;5.80;;;4.32;;
27804;SDS011;15183;51.350;11.102;2023-06-04T06:29:42;8.02;;;6.05;;
27804;SDS011;15183;51.350;11.102;2023-06-04T06:32:09;6.43;;;3.90;;
27804;SDS011;15183;51.350;11.102;2023-06-04T06:34:36;7.82;;;5.80;;
27804;SDS011;15183;51.350;11.102;2023-06-04T06:37:04;9.43;;;5.50;;
27804;SDS011;15183;51.350;11.102;2023-06-04T06:39:32;7.13;;;4.75;;
27804;SDS011;15183;51.350;11.102;2023-06-04T06:41:58;4.63;;;3.72;;
27804;SDS011;15183;51.350;11.102;2023-06-04T06:44:25;3.50;;;2.45;;
27804;SDS011;15183;51.350;11.102;2023-06-04T06:46:51;4.88;;;1.95;;
27804;SDS011;15183;51.350;11.102;2023-06-04T06:49:17;5.97;;;3.97;;
27804;SDS011;15183;51.350;11.102;2023-06-04T06:51:44;4.05;;;3.30;;
27804;SDS011;15183;51.350;11.102;2023-06-04T06:54:10;4.93;;;3.75;;
27804;SDS011;15183;51.350;11.102;2023-06-04T06:56:42;5.05;;;2.92;;
27804;SDS011;15183;51.350;11.102;2023-06-04T06:59:08;4.50;;;2.38;;
27804;SDS011;15183;51.350;11.102;2023-06-04T07:01:35;7.05;;;2.95;;
27804;SDS011;15183;51.350;11.102;2023-06-04T07:04:01;3.78;;;2.72;;
27804;SDS011;15183;51.350;11.102;2023-06-04T07:06:27;4.82;;;3.60;;
27804;SDS011;15183;51.350;11.102;2023-06-04T07:08:54;4.13;;;3.15;;
27804;SDS011;15183;51.350;11.102;2023-06-04T07:11:20;5.07;;;4.28;;
27804;SDS011;15183;51.350;11.102;2023-06-04T07:13:47;6.00;;;4.47;;
27804;SDS011;15183;51.350;11.102;2023-06-04T07:16:13;5.82;;;4.53;;
27804;SDS011;15183;51.350;11.102;2023-06-04T07:18:40;4.53;;;3.45;;
27804;SDS011;15183;51.350;11.102;2023-06-04T07:21:06;7.13;;;4.35;;
27804;SDS011;15183;51.350;11.102;2023-06-04T07:23:33;8.32;;;5.55;;
27804;SDS011;15183;51.350;11.102;2023-06-04T07:25:59;7.45;;;5.35;;
27804;SDS011;15183;51.350;11.102;2023-06-04T07:28:26;7.72;;;5.95;;
27804;SDS011;15183;51.350;11.102;2023-06-04T07:30:52;9.98;;;6.60;;
27804;SDS011;15183;51.350;11.102;2023-06-04T07:33:18;10.50;;;6.60;;
27804;SDS011;15183;51.350;11.102;2023-06-04T07:35:45;8.80;;;6.20;;
27804;SDS011;15183;51.350;11.102;2023-06-04T07:38:12;6.10;;;3.42;;
27804;SDS011;15183;51.350;11.102;2023-06-04T07:40:38;8.05;;;4.38;;
27804;SDS011;15183;51.350;11.102;2023-06-04T07:43:04;5.80;;;3.60;;
27804;SDS011;15183;51.350;11.102;2023-06-04T07:45:31;5.20;;;4.68;;
27804;SDS011;15183;51.350;11.102;2023-06-04T07:47:57;5.88;;;4.97;;
27804;SDS011;15183;51.350;11.102;2023-06-04T07:50:24;4.93;;;3.28;;
27804;SDS011;15183;51.350;11.102;2023-06-04T07:52:51;4.25;;;3.15;;
27804;SDS011;15183;51.350;11.102;2023-06-04T07:55:17;4.15;;;3.85;;
27804;SDS011;15183;51.350;11.102;2023-06-04T07:57:43;3.30;;;2.92;;
27804;SDS011;15183;51.350;11.102;2023-06-04T08:00:11;3.25;;;2.28;;
27804;SDS011;15183;51.350;11.102;2023-06-04T08:02:38;4.88;;;1.83;;
27804;SDS011;15183;51.350;11.102;2023-06-04T08:05:04;4.63;;;2.63;;
27804;SDS011;15183;51.350;11.102;2023-06-04T08:07:31;2.33;;;1.88;;
27804;SDS011;15183;51.350;11.102;2023-06-04T08:09:57;2.97;;;2.20;;
27804;SDS011;15183;51.350;11.102;2023-06-04T08:12:23;2.15;;;1.42;;
27804;SDS011;15183;51.350;11.102;2023-06-04T08:14:50;1.52;;;0.98;;
27804;SDS011;15183;51.350;11.102;2023-06-04T08:17:16;7.85;;;1.35;;
27804;SDS011;15183;51.350;11.102;2023-06-04T08:19:43;1.50;;;0.90;;
27804;SDS011;15183;51.350;11.102;2023-06-04T08:22:09;1.60;;;1.10;;
27804;SDS011;15183;51.350;11.102;2023-06-04T08:24:37;1.92;;;1.00;;
27804;SDS011;15183;51.350;11.102;2023-06-04T08:27:03;2.97;;;1.20;;
27804;SDS011;15183;51.350;11.102;2023-06-04T08:29:30;1.88;;;1.00;;
27804;SDS011;15183;51.350;11.102;2023-06-04T08:31:56;3.35;;;0.88;;
27804;SDS011;15183;51.350;11.102;2023-06-04T08:34:23;1.95;;;0.90;;
27804;SDS011;15183;51.350;11.102;2023-06-04T08:36:49;0.85;;;0.70;;
27804;SDS011;15183;51.350;11.102;2023-06-04T08:39:16;1.80;;;1.10;;
27804;SDS011;15183;51.350;11.102;2023-06-04T08:41:43;1.50;;;1.40;;
27804;SDS011;15183;51.350;11.102;2023-06-04T08:44:16;2.63;;;1.38;;
27804;SDS011;15183;51.350;11.102;2023-06-04T08:46:43;2.35;;;0.90;;
27804;SDS011;15183;51.350;11.102;2023-06-04T08:49:11;1.08;;;0.98;;
27804;SDS011;15183;51.350;11.102;2023-06-04T08:51:38;3.40;;;0.90;;
27804;SDS011;15183;51.350;11.102;2023-06-04T08:54:06;2.10;;;1.00;;
27804;SDS011;15183;51.350;11.102;2023-06-04T08:56:34;1.17;;;1.05;;
27804;SDS011;15183;51.350;11.102;2023-06-04T08:59:02;2.65;;;0.98;;
27804;SDS011;15183;51.350;11.102;2023-06-04T09:01:32;1.50;;;0.85;;
27804;SDS011;15183;51.350;11.102;2023-06-04T09:04:01;1.42;;;0.90;;
27804;SDS011;15183;51.350;11.102;2023-06-04T09:06:31;1.83;;;0.80;;
27804;SDS011;15183;51.350;11.102;2023-06-04T09:08:59;0.70;;;0.63;;
27804;SDS011;15183;51.350;11.102;2023-06-04T09:11:35;4.10;;;0.80;;
27804;SDS011;15183;51.350;11.102;2023-06-04T09:14:09;2.95;;;0.88;;
27804;SDS011;15183;51.350;11.102;2023-06-04T09:16:57;2.00;;;0.90;;
27804;SDS011;15183;51.350;11.102;2023-06-04T09:19:24;0.68;;;0.63;;
27804;SDS011;15183;51.350;11.102;2023-06-04T09:21:52;1.38;;;0.77;;
27804;SDS011;15183;51.350;11.102;2023-06-04T09:24:22;3.40;;;0.90;;
27804;SDS011;15183;51.350;11.102;2023-06-04T09:26:51;2.35;;;0.90;;
27804;SDS011;15183;51.350;11.102;2023-06-04T09:29:18;3.70;;;0.90;;
27804;SDS011;15183;51.350;11.102;2023-06-04T09:31:45;1.42;;;0.73;;
27804;SDS011;15183;51.350;11.102;2023-06-04T09:34:27;0.95;;;0.60;;
27804;SDS011;15183;51.350;11.102;2023-06-04T09:36:55;1.00;;;0.70;;
27804;SDS011;15183;51.350;11.102;2023-06-04T09:39:29;1.88;;;0.80;;
27804;SDS011;15183;51.350;11.102;2023-06-04T09:41:59;2.03;;;0.90;;
27804;SDS011;15183;51.350;11.102;2023-06-04T09:44:28;1.52;;;0.80;;
27804;SDS011;15183;51.350;11.102;2023-06-04T09:46:56;1.13;;;0.70;;
27804;SDS011;15183;51.350;11.102;2023-06-04T09:49:23;2.78;;;2.00;;
27804;SDS011;15183;51.350;11.102;2023-06-04T09:51:50;1.27;;;0.98;;
27804;SDS011;15183;51.350;11.102;2023-06-04T09:54:16;3.33;;;0.88;;
27804;SDS011;15183;51.350;11.102;2023-06-04T09:56:43;2.70;;;0.80;;
27804;SDS011;15183;51.350;11.102;2023-06-04T09:59:09;4.25;;;3.25;;
27804;SDS011;15183;51.350;11.102;2023-06-04T10:01:38;1.50;;;1.17;;
27804;SDS011;15183;51.350;11.102;2023-06-04T10:04:09;1.48;;;0.82;;
27804;SDS011;15183;51.350;11.102;2023-06-04T10:06:39;4.25;;;2.30;;
27804;SDS011;15183;51.350;11.102;2023-06-04T10:09:06;3.53;;;1.10;;
27804;SDS011;15183;51.350;11.102;2023-06-04T10:11:35;2.22;;;0.80;;
27804;SDS011;15183;51.350;11.102;2023-06-04T10:14:16;1.25;;;0.80;;
27804;SDS011;15183;51.350;11.102;2023-06-04T10:17:01;0.65;;;0.63;;
27804;SDS011;15183;51.350;11.102;2023-06-04T10:19:28;1.52;;;0.80;;
27804;SDS011;15183;51.350;11.102;2023-06-04T10:21:56;1.67;;;0.70;;
27804;SDS011;15183;51.350;11.102;2023-06-04T10:24:22;1.13;;;0.63;;
27804;SDS011;15183;51.350;11.102;2023-06-04T10:26:52;1.25;;;1.00;;
27804;SDS011;15183;51.350;11.102;2023-06-04T10:29:21;2.38;;;1.92;;
27804;SDS011;15183;51.350;11.102;2023-06-04T10:31:52;0.75;;;0.75;;
27804;SDS011;15183;51.350;11.102;2023-06-04T10:34:22;0.80;;;0.80;;
27804;SDS011;15183;51.350;11.102;2023-06-04T10:36:51;4.93;;;1.90;;
27804;SDS011;15183;51.350;11.102;2023-06-04T10:39:31;3.13;;;1.45;;
27804;SDS011;15183;51.350;11.102;2023-06-04T10:41:59;1.45;;;0.93;;
27804;SDS011;15183;51.350;11.102;2023-06-04T10:44:25;2.00;;;0.75;;
27804;SDS011;15183;51.350;11.102;2023-06-04T10:46:52;3.72;;;1.30;;
27804;SDS011;15183;51.350;11.102;2023-06-04T10:49:28;5.13;;;1.33;;
27804;SDS011;15183;51.350;11.102;2023-06-04T10:51:56;1.75;;;0.88;;
27804;SDS011;15183;51.350;11.102;2023-06-04T10:54:28;4.20;;;0.85;;
27804;SDS011;15183;51.350;11.102;2023-06-04T10:56:55;2.58;;;1.52;;
27804;SDS011;15183;51.350;11.102;2023-06-04T10:59:21;1.30;;;1.20;;
27804;SDS011;15183;51.350;11.102;2023-06-04T11:01:49;3.08;;;1.20;;
27804;SDS011;15183;51.350;11.102;2023-06-04T11:04:23;1.77;;;0.80;;
27804;SDS011;15183;51.350;11.102;2023-06-04T11:07:00;1.77;;;0.97;;
27804;SDS011;15183;51.350;11.102;2023-06-04T11:09:35;4.43;;;0.60;;
27804;SDS011;15183;51.350;11.102;2023-06-04T11:12:16;0.70;;;0.70;;
27804;SDS011;15183;51.350;11.102;2023-06-04T11:14:55;1.98;;;0.90;;
27804;SDS011;15183;51.350;11.102;2023-06-04T11:17:22;1.80;;;0.85;;
27804;SDS011;15183;51.350;11.102;2023-06-04T11:19:49;2.38;;;0.95;;
27804;SDS011;15183;51.350;11.102;2023-06-04T11:22:15;0.90;;;0.70;;
27804;SDS011;15183;51.350;11.102;2023-06-04T11:24:42;1.20;;;0.80;;
27804;SDS011;15183;51.350;11.102;2023-06-04T11:27:08;0.63;;;0.60;;
27804;SDS011;15183;51.350;11.102;2023-06-04T11:29:35;1.58;;;0.45;;
27804;SDS011;15183;51.350;11.102;2023-06-04T11:32:02;2.13;;;0.60;;
27804;SDS011;15183;51.350;11.102;2023-06-04T11:34:29;5.47;;;0.90;;
27804;SDS011;15183;51.350;11.102;2023-06-04T11:37:07;1.58;;;0.70;;
27804;SDS011;15183;51.350;11.102;2023-06-04T11:39:35;1.13;;;0.80;;
27804;SDS011;15183;51.350;11.102;2023-06-04T11:42:05;3.20;;;0.60;;
27804;SDS011;15183;51.350;11.102;2023-06-04T11:44:33;0.70;;;0.68;;
27804;SDS011;15183;51.350;11.102;2023-06-04T11:46:59;0.68;;;0.68;;
27804;SDS011;15183;51.350;11.102;2023-06-04T11:49:26;1.58;;;0.80;;
27804;SDS011;15183;51.350;11.102;2023-06-04T11:51:53;0.95;;;0.60;;
27804;SDS011;15183;51.350;11.102;2023-06-04T11:54:20;1.75;;;1.00;;
27804;SDS011;15183;51.350;11.102;2023-06-04T11:56:51;1.77;;;0.60;;
27804;SDS011;15183;51.350;11.102;2023-06-04T11:59:17;3.13;;;0.80;;
27804;SDS011;15183;51.350;11.102;2023-06-04T12:01:45;4.85;;;1.02;;
27804;SDS011;15183;51.350;11.102;2023-06-04T12:04:16;0.98;;;0.70;;
27804;SDS011;15183;51.350;11.102;2023-06-04T12:06:54;0.73;;;0.60;;
27804;SDS011;15183;51.350;11.102;2023-06-04T12:09:24;0.63;;;0.63;;
27804;SDS011;15183;51.350;11.102;2023-06-04T12:11:59;0.75;;;0.50;;
27804;SDS011;15183;51.350;11.102;2023-06-04T12:14:33;2.90;;;0.85;;
27804;SDS011;15183;51.350;11.102;2023-06-04T12:17:09;2.08;;;0.50;;
27804;SDS011;15183;51.350;11.102;2023-06-04T12:22:14;2.38;;;0.88;;
27804;SDS011;15183;51.350;11.102;2023-06-04T12:24:47;1.13;;;0.80;;
27804;SDS011;15183;51.350;11.102;2023-06-04T12:27:22;1.60;;;0.82;;
27804;SDS011;15183;51.350;11.102;2023-06-04T12:29:54;3.20;;;0.77;;
27804;SDS011;15183;51.350;11.102;2023-06-04T12:32:25;1.55;;;0.70;;
27804;SDS011;15183;51.350;11.102;2023-06-04T12:34:52;1.85;;;1.00;;
27804;SDS011;15183;51.350;11.102;2023-06-04T12:37:20;0.70;;;0.70;;
27804;SDS011;15183;51.350;11.102;2023-06-04T12:39:47;0.60;;;0.50;;
27804;SDS011;15183;51.350;11.102;2023-06-04T12:42:14;0.60;;;0.60;;
27804;SDS011;15183;51.350;11.102;2023-06-04T12:44:41;0.70;;;0.70;;
27804;SDS011;15183;51.350;11.102;2023-06-04T12:47:07;1.90;;;0.70;;
27804;SDS011;15183;51.350;11.102;2023-06-04T12:49:34;0.93;;;0.73;;
27804;SDS011;15183;51.350;11.102;2023-06-04T12:52:00;1.52;;;0.60;;
27804;SDS011;15183;51.350;11.102;2023-06-04T12:54:27;3.17;;;0.70;;
27804;SDS011;15183;51.350;11.102;2023-06-04T12:56:53;0.85;;;0.60;;
27804;SDS011;15183;51.350;11.102;2023-06-04T12:59:27;1.48;;;0.77;;
27804;SDS011;15183;51.350;11.102;2023-06-04T13:01:54;2.97;;;0.80;;
27804;SDS011;15183;51.350;11.102;2023-06-04T13:04:21;1.55;;;0.70;;
27804;SDS011;15183;51.350;11.102;2023-06-04T13:06:49;0.85;;;0.70;;
27804;SDS011;15183;51.350;11.102;2023-06-04T13:09:18;1.25;;;0.70;;
27804;SDS011;15183;51.350;11.102;2023-06-04T13:14:49;0.50;;;0.50;;
27804;SDS011;15183;51.350;11.102;2023-06-04T13:17:16;1.20;;;0.75;;
27804;SDS011;15183;51.350;11.102;2023-06-04T13:19:42;6.03;;;0.90;;
27804;SDS011;15183;51.350;11.102;2023-06-04T13:22:08;1.08;;;0.77;;
27804;SDS011;15183;51.350;11.102;2023-06-04T13:24:35;0.65;;;0.60;;
27804;SDS011;15183;51.350;11.102;2023-06-04T13:27:01;2.67;;;0.90;;
27804;SDS011;15183;51.350;11.102;2023-06-04T13:29:28;1.38;;;0.77;;
27804;SDS011;15183;51.350;11.102;2023-06-04T13:31:59;1.52;;;0.80;;
27804;SDS011;15183;51.350;11.102;2023-06-04T13:34:25;1.60;;;0.80;;
27804;SDS011;15183;51.350;11.102;2023-06-04T13:36:51;0.90;;;0.68;;
27804;SDS011;15183;51.350;11.102;2023-06-04T13:39:18;0.60;;;0.60;;
27804;SDS011;15183;51.350;11.102;2023-06-04T13:41:44;2.35;;;0.70;;
27804;SDS011;15183;51.350;11.102;2023-06-04T13:44:11;1.50;;;0.50;;
27804;SDS011;15183;51.350;11.102;2023-06-04T13:46:37;3.03;;;0.77;;
27804;SDS011;15183;51.350;11.102;2023-06-04T13:49:03;6.13;;;0.80;;
27804;SDS011;15183;51.350;11.102;2023-06-04T13:51:31;2.05;;;0.73;;
27804;SDS011;15183;51.350;11.102;2023-06-04T13:53:57;1.20;;;0.50;;
27804;SDS011;15183;51.350;11.102;2023-06-04T13:56:24;2.88;;;0.90;;
27804;SDS011;15183;51.350;11.102;2023-06-04T13:58:51;0.70;;;0.70;;
27804;SDS011;15183;51.350;11.102;2023-06-04T14:01:17;0.75;;;0.75;;
27804;SDS011;15183;51.350;11.102;2023-06-04T14:03:43;3.45;;;0.80;;
27804;SDS011;15183;51.350;11.102;2023-06-04T14:06:10;2.25;;;0.88;;
27804;SDS011;15183;51.350;11.102;2023-06-04T14:08:36;9.60;;;0.80;;
27804;SDS011;15183;51.350;11.102;2023-06-04T14:11:03;0.80;;;0.70;;
27804;SDS011;15183;51.350;11.102;2023-06-04T14:13:29;1.25;;;0.80;;
27804;SDS011;15183;51.350;11.102;2023-06-04T14:15:55;4.32;;;0.85;;
27804;SDS011;15183;51.350;11.102;2023-06-04T14:18:22;0.77;;;0.60;;
27804;SDS011;15183;51.350;11.102;2023-06-04T14:20:48;2.80;;;0.75;;
27804;SDS011;15183;51.350;11.102;2023-06-04T14:23:15;1.73;;;0.82;;
27804;SDS011;15183;51.350;11.102;2023-06-04T14:25:42;1.15;;;0.88;;
27804;SDS011;15183;51.350;11.102;2023-06-04T14:28:08;2.08;;;0.65;;
27804;SDS011;15183;51.350;11.102;2023-06-04T14:30:34;3.97;;;0.77;;
27804;SDS011;15183;51.350;11.102;2023-06-04T14:33:01;2.20;;;0.70;;
27804;SDS011;15183;51.350;11.102;2023-06-04T14:35:27;1.13;;;0.70;;
27804;SDS011;15183;51.350;11.102;2023-06-04T14:37:54;0.80;;;0.63;;
27804;SDS011;15183;51.350;11.102;2023-06-04T14:40:20;0.60;;;0.60;;
27804;SDS011;15183;51.350;11.102;2023-06-04T14:42:46;1.15;;;0.73;;
27804;SDS011;15183;51.350;11.102;2023-06-04T14:45:13;1.02;;;0.90;;
27804;SDS011;15183;51.350;11.102;2023-06-04T14:47:39;0.50;;;0.50;;
27804;SDS011;15183;51.350;11.102;2023-06-04T14:50:06;0.90;;;0.80;;
27804;SDS011;15183;51.350;11.102;2023-06-04T14:52:32;1.55;;;0.70;;
27804;SDS011;15183;51.350;11.102;2023-06-04T14:54:59;3.60;;;0.70;;